Time;durP1;ratioP1;P1;durP2;ratioP2;P2;SDS_P1;SDS_P2;PMS_P1;PMS_P2;Temp;Humidity;BMP_temperature;BMP_pressure;BME280_temperature;BME280_humidity;BME280_pressure;Samples;Min_cycle;Max_cycle;Signal;HPM_P1;HPM_P2
2021/12/29 00:01:06;;;;;;;;;;;9.30;92.60;;;;;;5011173;28;19925;-84
2021/12/29 00:03:31;;;;;;;;;;;9.30;92.70;;;;;;5034195;28;19913;-85
2021/12/29 00:05:57;;;;;;;;;;;9.30;92.60;;;;;;5030756;28;19921;-84
2021/12/29 00:08:22;;;;;;;;;;;9.40;92.60;;;;;;5029896;28;19917;-85
2021/12/29 00:10:54;;;;;;;;;;;9.30;92.60;;;;;;5012352;28;19917;-85
2021/12/29 00:13:20;;;;;;;;;;;9.30;92.70;;;;;;5031020;28;19910;-84
2021/12/29 00:15:46;;;;;;;;;;;9.30;92.70;;;;;;5012979;28;19917;-85
2021/12/29 00:18:11;;;;;;;;;;;9.30;92.80;;;;;;5014050;28;19913;-85
2021/12/29 00:20:37;;;;;;;;;;;9.30;92.70;;;;;;5016586;28;19924;-86
2021/12/29 00:23:03;;;;;;;;;;;9.30;92.70;;;;;;5034777;28;19909;-85
2021/12/29 00:25:29;;;;;;;;;;;9.30;92.70;;;;;;5016230;28;19996;-85
2021/12/29 00:27:55;;;;;;;;;;;9.30;92.70;;;;;;5034633;28;19963;-86
2021/12/29 00:30:21;;;;;;;;;;;9.30;92.60;;;;;;5033959;28;19917;-85
2021/12/29 00:32:47;;;;;;;;;;;9.30;92.50;;;;;;5030129;28;19932;-85
2021/12/29 00:35:14;;;;;;;;;;;9.20;92.50;;;;;;5018978;28;19913;-85
2021/12/29 00:37:40;;;;;;;;;;;9.20;92.80;;;;;;5060845;28;19901;-86
2021/12/29 00:40:06;;;;;;;;;;;9.20;92.70;;;;;;5032822;28;20465;-85
2021/12/29 00:42:31;;;;;;;;;;;9.20;92.60;;;;;;5023073;28;19916;-86
2021/12/29 00:44:57;;;;;;;;;;;9.30;92.60;;;;;;5021078;28;20008;-87
2021/12/29 00:47:22;;;;;;;;;;;9.30;92.40;;;;;;5020271;28;19913;-86
2021/12/29 00:49:48;;;;;;;;;;;9.30;92.50;;;;;;5018669;28;19917;-83
2021/12/29 00:52:14;;;;;;;;;;;9.30;92.30;;;;;;5018012;28;19978;-85
2021/12/29 00:54:40;;;;;;;;;;;9.20;92.50;;;;;;5041346;28;19959;-85
2021/12/29 00:57:06;;;;;;;;;;;9.30;92.60;;;;;;5071601;28;19928;-85
2021/12/29 00:59:31;;;;;;;;;;;9.20;92.50;;;;;;5036025;28;19913;-85
2021/12/29 01:01:57;;;;;;;;;;;9.20;92.70;;;;;;5009474;28;19920;-86
2021/12/29 01:04:23;;;;;;;;;;;9.30;92.70;;;;;;5016701;28;19919;-86
2021/12/29 01:06:48;;;;;;;;;;;9.30;92.50;;;;;;5018221;28;19920;-87
2021/12/29 01:09:14;;;;;;;;;;;9.30;92.40;;;;;;5016119;28;20340;-86
2021/12/29 01:11:39;;;;;;;;;;;9.20;92.50;;;;;;5017851;28;19960;-86
2021/12/29 01:14:07;;;;;;;;;;;9.20;92.60;;;;;;5050265;22;20315;-80
2021/12/29 01:19:12;;;;;;;;;;;9.20;92.60;;;;;;5052076;28;19913;-80
2021/12/29 01:21:39;;;;;;;;;;;9.30;92.60;;;;;;5029413;28;19960;-80
2021/12/29 01:24:05;;;;;;;;;;;9.30;92.50;;;;;;5022469;28;19913;-83
2021/12/29 01:26:31;;;;;;;;;;;9.20;92.40;;;;;;5055848;28;19909;-81
2021/12/29 01:28:56;;;;;;;;;;;9.20;92.60;;;;;;5054102;28;19919;-80
2021/12/29 01:31:22;;;;;;;;;;;9.20;92.60;;;;;;5028668;28;20373;-80
2021/12/29 01:33:47;;;;;;;;;;;9.20;92.60;;;;;;5045310;28;19920;-82
2021/12/29 01:36:13;;;;;;;;;;;9.30;92.50;;;;;;5043698;28;19951;-82
2021/12/29 01:38:38;;;;;;;;;;;9.30;92.60;;;;;;5018629;28;20433;-83
2021/12/29 01:41:04;;;;;;;;;;;9.30;92.40;;;;;;5029471;28;19920;-83
2021/12/29 01:43:29;;;;;;;;;;;9.30;92.10;;;;;;5053219;28;19970;-82
2021/12/29 01:45:55;;;;;;;;;;;9.30;92.20;;;;;;5047149;28;20384;-82
2021/12/29 01:48:20;;;;;;;;;;;9.20;92.30;;;;;;5021958;28;19917;-82
2021/12/29 01:50:49;;;;;;;;;;;9.30;92.40;;;;;;5035086;28;19964;-82
2021/12/29 01:53:22;;;;;;;;;;;9.20;92.50;;;;;;5023549;28;20344;-81
2021/12/29 01:55:48;;;;;;;;;;;9.30;92.40;;;;;;5016987;28;19917;-80
2021/12/29 01:58:14;;;;;;;;;;;9.20;92.40;;;;;;5048447;28;20391;-81
2021/12/29 02:00:41;;;;;;;;;;;9.20;92.20;;;;;;5033442;28;19925;-80
2021/12/29 02:03:08;;;;;;;;;;;9.30;92.30;;;;;;5038016;28;19905;-80
2021/12/29 02:05:37;;;;;;;;;;;9.30;92.40;;;;;;5074898;28;19975;-80
2021/12/29 02:08:04;;;;;;;;;;;9.30;92.20;;;;;;5046425;28;19917;-79
2021/12/29 02:10:33;;;;;;;;;;;9.20;92.30;;;;;;5048283;28;19932;-81
2021/12/29 02:12:59;;;;;;;;;;;9.20;92.30;;;;;;5019581;28;19928;-81
2021/12/29 02:15:24;;;;;;;;;;;9.20;92.30;;;;;;5043208;28;20258;-81
2021/12/29 02:17:50;;;;;;;;;;;9.20;92.20;;;;;;5034818;28;19913;-80
2021/12/29 02:20:18;;;;;;;;;;;9.20;92.30;;;;;;5047223;28;19913;-80
2021/12/29 02:22:47;;;;;;;;;;;9.20;92.50;;;;;;5039102;28;20020;-81
2021/12/29 02:27:43;;;;;;;;;;;9.20;92.40;;;;;;5050307;28;19912;-81
2021/12/29 02:30:08;;;;;;;;;;;9.20;92.30;;;;;;5027433;28;19912;-83
2021/12/29 02:32:34;;;;;;;;;;;9.20;92.30;;;;;;5019742;28;20040;-84
2021/12/29 02:34:59;;;;;;;;;;;9.20;92.40;;;;;;5047980;28;19935;-85
2021/12/29 02:37:25;;;;;;;;;;;9.10;92.60;;;;;;5051256;28;19919;-80
2021/12/29 02:39:52;;;;;;;;;;;9.10;92.60;;;;;;5022849;28;19913;-82
2021/12/29 02:42:19;;;;;;;;;;;9.10;92.60;;;;;;5027631;28;19920;-84
2021/12/29 02:44:46;;;;;;;;;;;9.20;92.80;;;;;;5037372;28;19921;-83
2021/12/29 02:47:11;;;;;;;;;;;9.20;92.60;;;;;;5037087;28;19915;-81
2021/12/29 02:49:37;;;;;;;;;;;9.20;92.50;;;;;;5039599;28;20363;-84
2021/12/29 02:52:03;;;;;;;;;;;9.20;92.60;;;;;;5045906;28;19933;-83
2021/12/29 02:54:28;;;;;;;;;;;9.20;92.40;;;;;;5053694;28;19909;-82
2021/12/29 02:56:57;;;;;;;;;;;9.20;92.40;;;;;;5042431;28;19913;-83
2021/12/29 02:59:23;;;;;;;;;;;9.10;92.40;;;;;;5016389;28;20012;-83
2021/12/29 03:01:49;;;;;;;;;;;9.10;92.50;;;;;;5035778;28;20027;-84
2021/12/29 03:04:16;;;;;;;;;;;9.20;92.20;;;;;;5052302;28;20611;-81
2021/12/29 03:06:41;;;;;;;;;;;9.20;92.00;;;;;;5053781;28;19909;-82
2021/12/29 03:09:08;;;;;;;;;;;9.30;92.00;;;;;;5035636;28;20011;-82
2021/12/29 03:11:34;;;;;;;;;;;9.20;91.80;;;;;;5036337;28;19963;-82
2021/12/29 03:14:00;;;;;;;;;;;9.20;91.90;;;;;;5015803;28;19913;-83
2021/12/29 03:16:26;;;;;;;;;;;9.20;91.90;;;;;;5017229;28;19920;-81
2021/12/29 03:18:51;;;;;;;;;;;9.30;91.80;;;;;;5017548;28;20070;-82
2021/12/29 03:21:17;;;;;;;;;;;9.30;91.70;;;;;;5035668;28;19915;-83
2021/12/29 03:23:42;;;;;;;;;;;9.20;91.80;;;;;;5058134;28;19971;-83
2021/12/29 03:26:08;;;;;;;;;;;9.20;91.90;;;;;;5058003;28;19912;-81
2021/12/29 03:28:34;;;;;;;;;;;9.20;92.10;;;;;;5051676;28;19932;-82
2021/12/29 03:30:59;;;;;;;;;;;9.20;92.10;;;;;;5020803;28;19920;-83
2021/12/29 03:33:28;;;;;;;;;;;9.20;92.20;;;;;;5019182;28;19917;-82
2021/12/29 03:36:00;;;;;;;;;;;9.20;92.20;;;;;;5037099;28;19909;-83
2021/12/29 03:38:26;;;;;;;;;;;9.20;92.00;;;;;;5039767;28;19916;-82
2021/12/29 03:40:53;;;;;;;;;;;9.30;91.90;;;;;;5057196;28;19908;-83
2021/12/29 03:43:19;;;;;;;;;;;9.20;92.10;;;;;;5055421;28;19935;-83
2021/12/29 03:45:45;;;;;;;;;;;9.30;91.80;;;;;;5036722;28;20445;-84
2021/12/29 03:48:12;;;;;;;;;;;9.30;91.80;;;;;;5039808;28;19909;-82
2021/12/29 03:50:37;;;;;;;;;;;9.20;91.90;;;;;;5036369;28;20278;-81
2021/12/29 03:53:03;;;;;;;;;;;9.20;91.90;;;;;;5050161;28;19952;-82
2021/12/29 03:55:29;;;;;;;;;;;9.20;92.00;;;;;;5028864;28;19913;-83
2021/12/29 03:57:54;;;;;;;;;;;9.30;91.80;;;;;;5042293;28;20276;-82
2021/12/29 04:00:23;;;;;;;;;;;9.20;91.70;;;;;;5041491;28;19923;-82
2021/12/29 04:02:48;;;;;;;;;;;9.20;92.00;;;;;;5062952;28;20012;-82
2021/12/29 04:05:17;;;;;;;;;;;9.30;91.90;;;;;;5031088;28;20068;-82
2021/12/29 04:07:42;;;;;;;;;;;9.30;91.90;;;;;;5024647;28;19909;-83
2021/12/29 04:10:09;;;;;;;;;;;9.20;91.90;;;;;;5025265;28;20286;-82
2021/12/29 04:12:35;;;;;;;;;;;9.20;91.90;;;;;;5026973;28;19979;-82
2021/12/29 04:15:00;;;;;;;;;;;9.20;92.00;;;;;;5043664;28;20369;-82
2021/12/29 04:17:36;;;;;;;;;;;9.30;91.90;;;;;;5063680;28;19908;-83
2021/12/29 04:22:47;;;;;;;;;;;9.20;91.90;;;;;;5065321;28;19915;-82
2021/12/29 04:25:13;;;;;;;;;;;9.20;91.90;;;;;;5045305;28;20353;-83
2021/12/29 04:27:39;;;;;;;;;;;9.30;91.80;;;;;;5023934;28;20059;-82
2021/12/29 04:30:04;;;;;;;;;;;9.20;91.90;;;;;;5024790;28;19947;-82
2021/12/29 04:32:30;;;;;;;;;;;9.20;92.10;;;;;;5022060;28;19917;-81
2021/12/29 04:34:55;;;;;;;;;;;9.20;92.10;;;;;;5041493;28;19915;-81
2021/12/29 04:37:21;;;;;;;;;;;9.20;92.10;;;;;;5055736;28;19956;-84
2021/12/29 04:39:46;;;;;;;;;;;9.20;92.00;;;;;;5017422;28;19996;-82
2021/12/29 04:42:12;;;;;;;;;;;9.30;92.20;;;;;;5018823;28;20499;-83
2021/12/29 04:44:37;;;;;;;;;;;9.30;92.30;;;;;;5028753;28;19938;-82
2021/12/29 04:47:03;;;;;;;;;;;9.30;92.00;;;;;;5041488;28;20226;-82
2021/12/29 04:49:39;;;;;;;;;;;9.30;92.20;;;;;;5043783;28;20027;-82
2021/12/29 04:52:05;;;;;;;;;;;9.30;92.20;;;;;;5045048;28;20415;-83
2021/12/29 04:54:30;;;;;;;;;;;9.20;92.20;;;;;;5038073;28;19913;-83
2021/12/29 04:56:56;;;;;;;;;;;9.20;92.00;;;;;;5024987;28;19913;-84
2021/12/29 04:59:23;;;;;;;;;;;9.20;92.20;;;;;;5023757;28;19913;-83
2021/12/29 05:01:48;;;;;;;;;;;9.10;92.30;;;;;;5027063;28;19972;-83
2021/12/29 05:04:28;;;;;;;;;;;9.10;92.30;;;;;;5057095;28;19932;-82
2021/12/29 05:09:46;;;;;;;;;;;9.20;92.40;;;;;;5061772;28;19920;-83
2021/12/29 05:12:12;;;;;;;;;;;9.20;92.20;;;;;;5046429;28;19913;-83
2021/12/29 05:14:37;;;;;;;;;;;9.20;92.10;;;;;;5043786;28;19917;-85
2021/12/29 05:17:03;;;;;;;;;;;9.10;92.30;;;;;;5035332;28;19948;-83
2021/12/29 05:19:29;;;;;;;;;;;9.20;92.10;;;;;;5027993;28;19913;-83
2021/12/29 05:21:54;;;;;;;;;;;9.10;92.00;;;;;;5028423;28;20023;-82
2021/12/29 05:24:20;;;;;;;;;;;9.10;92.10;;;;;;5050766;28;19924;-85
2021/12/29 05:26:45;;;;;;;;;;;9.10;91.80;;;;;;5030818;28;19919;-83
2021/12/29 05:29:11;;;;;;;;;;;9.10;91.70;;;;;;5026506;28;19910;-84
2021/12/29 05:31:36;;;;;;;;;;;9.10;91.80;;;;;;5064007;28;19976;-85
2021/12/29 05:34:02;;;;;;;;;;;9.00;91.60;;;;;;5049418;28;20534;-84
2021/12/29 05:36:27;;;;;;;;;;;9.10;91.80;;;;;;5048073;28;19935;-83
2021/12/29 05:38:55;;;;;;;;;;;9.10;91.80;;;;;;5029482;28;19913;-87
2021/12/29 05:41:20;;;;;;;;;;;9.10;92.00;;;;;;5031449;28;19944;-85
2021/12/29 05:43:46;;;;;;;;;;;9.00;91.70;;;;;;5033059;28;20265;-84
2021/12/29 05:46:11;;;;;;;;;;;9.10;91.40;;;;;;5032125;28;19909;-84
2021/12/29 05:48:37;;;;;;;;;;;9.00;91.30;;;;;;5028433;28;19963;-85
2021/12/29 05:51:03;;;;;;;;;;;8.90;91.70;;;;;;5040497;28;19967;-85
2021/12/29 05:53:28;;;;;;;;;;;8.90;91.80;;;;;;5046505;28;19936;-84
2021/12/29 05:55:54;;;;;;;;;;;9.00;91.40;;;;;;5057105;28;19909;-84
2021/12/29 05:58:19;;;;;;;;;;;9.00;91.60;;;;;;5040960;28;20005;-84
2021/12/29 06:00:45;;;;;;;;;;;8.90;91.40;;;;;;5041035;28;19908;-84
2021/12/29 06:03:11;;;;;;;;;;;8.90;91.60;;;;;;5042352;28;19913;-84
2021/12/29 06:05:37;;;;;;;;;;;8.80;91.70;;;;;;5058650;28;20046;-84
2021/12/29 06:08:03;;;;;;;;;;;8.90;91.30;;;;;;5041010;28;20253;-83
2021/12/29 06:10:29;;;;;;;;;;;8.90;91.60;;;;;;5040130;28;19913;-83
2021/12/29 06:12:55;;;;;;;;;;;8.90;91.50;;;;;;5058579;28;19917;-84
2021/12/29 06:15:21;;;;;;;;;;;9.00;91.60;;;;;;5058115;28;19980;-84
2021/12/29 06:17:46;;;;;;;;;;;9.00;91.60;;;;;;5059729;28;19917;-84
2021/12/29 06:20:12;;;;;;;;;;;9.10;91.50;;;;;;5040803;28;19920;-83
2021/12/29 06:22:38;;;;;;;;;;;9.00;91.60;;;;;;5034382;28;19939;-84
2021/12/29 06:25:04;;;;;;;;;;;9.00;91.70;;;;;;5040929;28;20024;-83
2021/12/29 06:27:31;;;;;;;;;;;9.00;91.80;;;;;;5040465;28;19909;-83
2021/12/29 06:29:56;;;;;;;;;;;9.00;91.60;;;;;;5040273;28;19917;-84
2021/12/29 06:32:22;;;;;;;;;;;9.10;91.40;;;;;;5022412;28;19913;-84
2021/12/29 06:34:48;;;;;;;;;;;9.10;91.10;;;;;;5056066;28;19985;-84
2021/12/29 06:37:13;;;;;;;;;;;9.10;91.30;;;;;;5044962;28;19921;-82
2021/12/29 06:39:39;;;;;;;;;;;9.10;91.30;;;;;;5028418;28;19915;-83
2021/12/29 06:42:05;;;;;;;;;;;9.10;91.20;;;;;;5034475;28;19913;-83
2021/12/29 06:44:31;;;;;;;;;;;9.10;91.20;;;;;;5058481;28;20054;-84
2021/12/29 06:46:56;;;;;;;;;;;9.20;91.00;;;;;;5041975;28;19909;-83
2021/12/29 06:49:22;;;;;;;;;;;9.10;91.10;;;;;;5060226;28;19935;-83
2021/12/29 06:51:48;;;;;;;;;;;9.10;91.20;;;;;;5061746;28;19958;-84
2021/12/29 06:54:14;;;;;;;;;;;9.10;91.40;;;;;;5048020;28;19935;-85
2021/12/29 06:56:39;;;;;;;;;;;9.00;91.40;;;;;;5044204;28;20428;-83
2021/12/29 06:59:05;;;;;;;;;;;9.00;91.50;;;;;;5060904;28;19962;-84
2021/12/29 07:01:30;;;;;;;;;;;9.10;91.60;;;;;;5059606;28;19913;-83
2021/12/29 07:03:57;;;;;;;;;;;9.10;91.50;;;;;;5024093;28;19909;-83
2021/12/29 07:06:22;;;;;;;;;;;9.10;91.50;;;;;;5043209;28;19917;-83
2021/12/29 07:08:48;;;;;;;;;;;9.10;91.10;;;;;;5031874;28;20003;-84
2021/12/29 07:11:13;;;;;;;;;;;9.10;91.10;;;;;;5060896;28;19923;-83
2021/12/29 07:13:39;;;;;;;;;;;9.10;91.00;;;;;;5032795;28;19908;-83
2021/12/29 07:16:04;;;;;;;;;;;9.10;91.10;;;;;;5041512;28;19920;-83
2021/12/29 07:18:30;;;;;;;;;;;9.10;91.20;;;;;;5049945;28;20007;-83
2021/12/29 07:20:55;;;;;;;;;;;9.10;91.40;;;;;;5049786;28;20004;-83
2021/12/29 07:23:21;;;;;;;;;;;9.10;91.20;;;;;;5020863;28;19995;-83
2021/12/29 07:25:46;;;;;;;;;;;9.20;90.80;;;;;;5050497;28;19915;-83
2021/12/29 07:28:12;;;;;;;;;;;9.20;90.80;;;;;;5031607;28;19909;-83
2021/12/29 07:30:37;;;;;;;;;;;9.20;91.20;;;;;;5062490;28;19901;-84
2021/12/29 07:33:03;;;;;;;;;;;9.20;90.80;;;;;;5056744;28;19908;-84
2021/12/29 07:35:29;;;;;;;;;;;9.10;91.00;;;;;;5047233;28;19911;-84
2021/12/29 07:37:55;;;;;;;;;;;9.10;91.30;;;;;;5049569;28;19983;-83
2021/12/29 07:40:20;;;;;;;;;;;9.10;91.30;;;;;;5044024;28;19964;-83
2021/12/29 07:42:46;;;;;;;;;;;9.10;91.20;;;;;;5043957;28;19913;-84
2021/12/29 07:45:12;;;;;;;;;;;9.20;91.40;;;;;;5023791;28;19932;-83
2021/12/29 07:47:41;;;;;;;;;;;9.20;91.20;;;;;;5042938;28;19972;-84
2021/12/29 07:50:06;;;;;;;;;;;9.10;91.60;;;;;;5046095;28;19912;-83
2021/12/29 07:52:32;;;;;;;;;;;9.20;91.40;;;;;;5043054;28;19927;-83
2021/12/29 07:54:57;;;;;;;;;;;9.20;91.40;;;;;;5045004;28;19923;-83
2021/12/29 07:57:23;;;;;;;;;;;9.20;91.40;;;;;;5065646;28;19912;-83
2021/12/29 07:59:48;;;;;;;;;;;9.20;91.60;;;;;;5044989;28;19908;-83
2021/12/29 08:02:16;;;;;;;;;;;9.30;91.50;;;;;;5042569;28;20007;-83
2021/12/29 08:04:42;;;;;;;;;;;9.20;91.20;;;;;;5028231;28;19944;-83
2021/12/29 08:07:08;;;;;;;;;;;9.20;91.50;;;;;;5042431;28;20353;-83
2021/12/29 08:09:33;;;;;;;;;;;9.30;91.30;;;;;;5046230;28;20009;-83
2021/12/29 08:11:58;;;;;;;;;;;9.20;91.30;;;;;;5050549;28;20015;-83
2021/12/29 08:14:24;;;;;;;;;;;9.30;91.60;;;;;;5064977;28;19979;-83
2021/12/29 08:16:49;;;;;;;;;;;9.30;91.50;;;;;;5053750;28;19913;-84
2021/12/29 08:19:16;;;;;;;;;;;9.30;91.40;;;;;;5035585;28;19958;-83
2021/12/29 08:21:41;;;;;;;;;;;9.30;91.20;;;;;;5054420;28;19976;-83
2021/12/29 08:24:07;;;;;;;;;;;9.30;91.20;;;;;;5036440;28;19964;-83
2021/12/29 08:26:32;;;;;;;;;;;9.30;91.30;;;;;;5056060;28;19943;-83
2021/12/29 08:28:58;;;;;;;;;;;9.30;91.20;;;;;;5054684;28;19968;-83
2021/12/29 08:31:24;;;;;;;;;;;9.30;91.10;;;;;;5056131;28;19943;-83
2021/12/29 08:33:50;;;;;;;;;;;9.20;91.60;;;;;;5026089;28;20361;-83
2021/12/29 08:36:15;;;;;;;;;;;9.30;91.40;;;;;;5043767;28;19937;-84
2021/12/29 08:38:41;;;;;;;;;;;9.20;91.20;;;;;;5020443;28;19920;-84
2021/12/29 08:41:06;;;;;;;;;;;9.20;91.50;;;;;;5052029;28;19912;-83
2021/12/29 08:43:32;;;;;;;;;;;9.20;91.50;;;;;;5043218;28;19909;-84
2021/12/29 08:45:57;;;;;;;;;;;9.30;91.40;;;;;;5035158;28;19990;-83
2021/12/29 08:48:23;;;;;;;;;;;9.30;91.30;;;;;;5061171;28;19917;-83
2021/12/29 08:50:48;;;;;;;;;;;9.30;91.20;;;;;;5046041;28;19972;-83
2021/12/29 08:53:14;;;;;;;;;;;9.30;91.00;;;;;;5048715;28;19909;-83
2021/12/29 08:55:46;;;;;;;;;;;9.30;91.30;;;;;;5049486;28;19909;-83
2021/12/29 08:58:12;;;;;;;;;;;9.30;91.40;;;;;;5043028;28;19908;-82
2021/12/29 09:00:38;;;;;;;;;;;9.30;91.30;;;;;;5056447;28;19913;-83
2021/12/29 09:03:03;;;;;;;;;;;9.30;91.10;;;;;;5025792;28;19936;-83
2021/12/29 09:05:29;;;;;;;;;;;9.30;91.20;;;;;;5020468;28;19997;-83
2021/12/29 09:07:55;;;;;;;;;;;9.30;91.20;;;;;;5043273;28;20298;-83
2021/12/29 09:10:20;;;;;;;;;;;9.30;91.10;;;;;;5057755;28;19916;-83
2021/12/29 09:12:51;;;;;;;;;;;9.30;91.30;;;;;;5039834;28;19920;-83
2021/12/29 09:15:18;;;;;;;;;;;9.30;91.10;;;;;;5050246;28;20024;-83
2021/12/29 09:17:44;;;;;;;;;;;9.20;91.20;;;;;;5047059;28;20001;-83
2021/12/29 09:20:15;;;;;;;;;;;9.30;91.10;;;;;;5038578;28;19920;-83
2021/12/29 09:22:41;;;;;;;;;;;9.50;91.00;;;;;;5056065;28;19916;-83
2021/12/29 09:25:07;;;;;;;;;;;9.50;90.70;;;;;;5038084;28;19912;-83
2021/12/29 09:27:32;;;;;;;;;;;9.40;90.50;;;;;;5037417;28;20003;-83
2021/12/29 09:29:58;;;;;;;;;;;9.50;90.30;;;;;;5035975;28;19994;-83
2021/12/29 09:32:24;;;;;;;;;;;9.50;90.50;;;;;;5039614;28;19917;-83
2021/12/29 09:34:50;;;;;;;;;;;9.40;90.80;;;;;;5037955;28;19966;-83
2021/12/29 09:37:15;;;;;;;;;;;9.50;90.50;;;;;;5058115;28;19915;-84
2021/12/29 09:39:41;;;;;;;;;;;9.50;90.30;;;;;;5056967;28;20233;-83
2021/12/29 09:42:07;;;;;;;;;;;9.40;90.40;;;;;;5052054;28;19913;-84
2021/12/29 09:44:32;;;;;;;;;;;9.50;90.50;;;;;;5038286;28;20310;-83
2021/12/29 09:46:58;;;;;;;;;;;9.50;90.40;;;;;;5033545;28;20272;-84
2021/12/29 09:49:23;;;;;;;;;;;9.60;90.20;;;;;;5019163;28;19960;-84
2021/12/29 09:51:50;;;;;;;;;;;9.60;90.20;;;;;;5037471;28;19967;-84
2021/12/29 09:54:15;;;;;;;;;;;9.50;90.20;;;;;;5024205;28;19940;-84
2021/12/29 09:56:41;;;;;;;;;;;9.60;90.00;;;;;;5037130;28;19975;-84
2021/12/29 09:59:06;;;;;;;;;;;9.70;90.00;;;;;;5034337;28;19955;-83
2021/12/29 10:01:32;;;;;;;;;;;9.60;89.90;;;;;;5038453;28;20495;-83
2021/12/29 10:03:57;;;;;;;;;;;9.60;90.10;;;;;;5026514;28;20310;-84
2021/12/29 10:06:23;;;;;;;;;;;9.70;89.80;;;;;;5038138;28;19982;-83
2021/12/29 10:08:49;;;;;;;;;;;9.60;89.90;;;;;;5036704;28;19909;-83
2021/12/29 10:11:18;;;;;;;;;;;9.70;89.80;;;;;;5039646;28;19913;-83
2021/12/29 10:13:45;;;;;;;;;;;9.70;89.70;;;;;;5020072;28;20023;-83
2021/12/29 10:16:13;;;;;;;;;;;9.70;89.90;;;;;;5043944;28;19935;-83
2021/12/29 10:18:41;;;;;;;;;;;9.70;89.90;;;;;;5058017;28;20237;-83
2021/12/29 10:21:12;;;;;;;;;;;9.70;89.70;;;;;;5046383;28;20011;-84
2021/12/29 10:23:44;;;;;;;;;;;9.70;90.10;;;;;;5050225;28;20378;-84
2021/12/29 10:26:13;;;;;;;;;;;9.80;90.00;;;;;;5058517;28;19920;-83
2021/12/29 10:28:40;;;;;;;;;;;9.80;89.60;;;;;;5038776;28;19908;-84
2021/12/29 10:31:07;;;;;;;;;;;9.90;89.60;;;;;;5038047;28;19955;-85
2021/12/29 10:33:38;;;;;;;;;;;10.10;89.10;;;;;;5039665;28;19920;-83
2021/12/29 10:36:11;;;;;;;;;;;10.00;88.60;;;;;;5026756;28;19921;-84
2021/12/29 10:38:37;;;;;;;;;;;10.00;88.90;;;;;;5057685;28;19916;-85
2021/12/29 10:41:03;;;;;;;;;;;10.00;89.10;;;;;;5027215;28;19914;-85
2021/12/29 10:43:28;;;;;;;;;;;10.00;89.20;;;;;;5038029;28;19935;-84
2021/12/29 10:45:54;;;;;;;;;;;10.00;89.20;;;;;;5038642;28;19908;-84
2021/12/29 10:48:30;;;;;;;;;;;10.10;89.00;;;;;;5041929;28;19916;-84
2021/12/29 10:50:55;;;;;;;;;;;10.20;88.60;;;;;;5058299;28;19925;-83
2021/12/29 10:53:21;;;;;;;;;;;10.20;88.50;;;;;;5060331;28;20053;-84
2021/12/29 10:55:47;;;;;;;;;;;10.20;88.20;;;;;;5059834;28;19909;-84
2021/12/29 10:58:20;;;;;;;;;;;10.20;88.60;;;;;;5039137;28;19909;-84
2021/12/29 11:00:49;;;;;;;;;;;10.20;88.20;;;;;;5043951;28;19963;-84
2021/12/29 11:03:16;;;;;;;;;;;10.30;88.10;;;;;;5038113;28;19948;-83
2021/12/29 11:05:48;;;;;;;;;;;10.40;87.60;;;;;;5055372;28;19908;-84
2021/12/29 11:08:15;;;;;;;;;;;10.30;87.70;;;;;;5037085;28;19913;-84
2021/12/29 11:10:40;;;;;;;;;;;10.40;87.40;;;;;;5055492;28;19916;-84
2021/12/29 11:13:07;;;;;;;;;;;10.40;87.50;;;;;;5055891;28;19917;-84
2021/12/29 11:15:37;;;;;;;;;;;10.60;87.10;;;;;;5044740;28;19935;-84
2021/12/29 11:18:07;;;;;;;;;;;10.60;86.90;;;;;;5020411;28;19913;-84
2021/12/29 11:20:33;;;;;;;;;;;10.70;86.90;;;;;;5014894;28;20012;-83
2021/12/29 11:23:15;;;;;;;;;;;10.60;86.70;;;;;;5050991;28;20119;-84
2021/12/29 11:25:42;;;;;;;;;;;10.60;86.70;;;;;;5037097;28;19990;-84
2021/12/29 11:28:18;;;;;;;;;;;10.60;86.60;;;;;;5037780;28;20039;-84
2021/12/29 11:30:44;;;;;;;;;;;10.50;86.40;;;;;;5039800;28;19917;-83
2021/12/29 11:33:10;;;;;;;;;;;10.50;86.40;;;;;;5058636;28;19920;-83
2021/12/29 11:35:37;;;;;;;;;;;10.50;86.00;;;;;;5038119;28;20012;-84
2021/12/29 11:38:03;;;;;;;;;;;10.50;86.30;;;;;;5053493;28;19913;-81
2021/12/29 11:40:29;;;;;;;;;;;10.50;86.40;;;;;;5043609;28;19917;-85
2021/12/29 11:42:55;;;;;;;;;;;10.40;86.10;;;;;;5042952;28;19917;-85
2021/12/29 11:45:21;;;;;;;;;;;10.30;86.20;;;;;;5016060;28;19924;-85
2021/12/29 11:47:47;;;;;;;;;;;10.40;86.40;;;;;;5057733;28;19909;-85
2021/12/29 11:50:17;;;;;;;;;;;10.40;86.10;;;;;;5062098;28;19916;-85
2021/12/29 11:53:01;;;;;;;;;;;10.30;86.50;;;;;;5037489;28;19979;-85
2021/12/29 11:55:31;;;;;;;;;;;10.50;86.30;;;;;;5015260;28;20169;-82
2021/12/29 11:58:07;;;;;;;;;;;10.40;86.20;;;;;;5022038;28;19963;-84
2021/12/29 12:00:33;;;;;;;;;;;10.40;86.10;;;;;;5044895;28;19986;-83
2021/12/29 12:03:06;;;;;;;;;;;10.50;85.80;;;;;;5050740;28;19909;-84
2021/12/29 12:05:33;;;;;;;;;;;10.40;85.50;;;;;;5033089;28;19936;-84
2021/12/29 12:08:08;;;;;;;;;;;10.30;86.20;;;;;;5032000;28;19974;-84
2021/12/29 12:10:35;;;;;;;;;;;10.30;85.90;;;;;;5014390;28;20421;-85
2021/12/29 12:13:04;;;;;;;;;;;10.20;85.40;;;;;;5032884;28;19928;-84
2021/12/29 12:15:30;;;;;;;;;;;10.20;86.70;;;;;;5033672;28;19944;-84
2021/12/29 12:17:56;;;;;;;;;;;10.10;86.20;;;;;;5035487;28;19971;-84
2021/12/29 12:20:22;;;;;;;;;;;10.10;86.30;;;;;;5037748;28;19913;-83
2021/12/29 12:22:51;;;;;;;;;;;10.10;86.50;;;;;;5036873;28;19909;-83
2021/12/29 12:25:18;;;;;;;;;;;10.20;86.30;;;;;;5034874;28;19916;-84
2021/12/29 12:27:44;;;;;;;;;;;10.20;86.70;;;;;;5031278;28;19917;-84
2021/12/29 12:30:12;;;;;;;;;;;10.20;86.60;;;;;;5029746;28;20004;-84
2021/12/29 12:32:40;;;;;;;;;;;10.20;86.30;;;;;;5023870;28;19917;-84
2021/12/29 12:35:06;;;;;;;;;;;10.20;86.50;;;;;;5038511;28;20234;-83
2021/12/29 12:37:34;;;;;;;;;;;10.30;85.50;;;;;;5024968;28;20011;-83
2021/12/29 12:40:07;;;;;;;;;;;10.30;85.80;;;;;;5050857;28;19912;-83
2021/12/29 12:42:34;;;;;;;;;;;10.20;86.50;;;;;;5033693;28;20051;-83
2021/12/29 12:45:00;;;;;;;;;;;10.30;86.50;;;;;;5027347;28;20016;-82
2021/12/29 12:47:30;;;;;;;;;;;10.20;86.70;;;;;;5045113;28;19913;-85
2021/12/29 12:49:57;;;;;;;;;;;10.20;85.90;;;;;;5027631;28;19971;-84
2021/12/29 12:52:24;;;;;;;;;;;10.20;86.60;;;;;;5029135;28;20440;-83
2021/12/29 12:54:52;;;;;;;;;;;10.20;86.60;;;;;;5030174;28;20301;-83
2021/12/29 12:57:36;;;;;;;;;;;10.20;86.40;;;;;;5047333;28;20114;-84
2021/12/29 13:00:08;;;;;;;;;;;10.10;86.60;;;;;;5016413;28;20000;-84
2021/12/29 13:03:00;;;;;;;;;;;10.30;86.00;;;;;;5037834;28;19932;-84
2021/12/29 13:05:27;;;;;;;;;;;10.20;86.00;;;;;;5038818;28;19923;-83
2021/12/29 13:08:00;;;;;;;;;;;10.00;86.40;;;;;;5050975;28;19915;-83
2021/12/29 13:10:27;;;;;;;;;;;10.00;86.20;;;;;;5071830;28;19998;-85
2021/12/29 13:12:57;;;;;;;;;;;10.00;86.60;;;;;;5062316;28;20014;-84
2021/12/29 13:15:24;;;;;;;;;;;10.00;86.30;;;;;;5058889;28;19910;-82
2021/12/29 13:17:49;;;;;;;;;;;10.00;86.20;;;;;;5044569;28;19917;-83
2021/12/29 13:20:15;;;;;;;;;;;10.00;86.40;;;;;;5050339;28;19912;-85
2021/12/29 13:22:42;;;;;;;;;;;9.90;86.50;;;;;;5035517;28;20048;-84
2021/12/29 13:25:09;;;;;;;;;;;10.00;86.10;;;;;;5019589;28;20297;-83
2021/12/29 13:27:35;;;;;;;;;;;10.00;86.60;;;;;;5018256;28;19925;-82
2021/12/29 13:30:02;;;;;;;;;;;10.00;86.40;;;;;;5015323;28;20032;-84
2021/12/29 13:32:28;;;;;;;;;;;10.10;86.40;;;;;;5042519;28;19921;-84
2021/12/29 13:35:01;;;;;;;;;;;10.10;85.90;;;;;;5028590;28;19913;-84
2021/12/29 13:37:27;;;;;;;;;;;10.10;86.10;;;;;;5023967;28;19937;-84
2021/12/29 13:39:53;;;;;;;;;;;10.20;86.50;;;;;;5038676;28;19924;-84
2021/12/29 13:42:19;;;;;;;;;;;10.10;86.30;;;;;;5031484;28;19996;-84
2021/12/29 13:44:44;;;;;;;;;;;10.10;86.10;;;;;;5031063;28;19913;-83
2021/12/29 13:47:10;;;;;;;;;;;10.20;86.10;;;;;;5043583;28;19970;-84
2021/12/29 13:49:35;;;;;;;;;;;10.20;86.40;;;;;;5058291;28;19992;-84
2021/12/29 13:52:02;;;;;;;;;;;10.20;85.90;;;;;;5048325;28;20024;-83
2021/12/29 13:54:29;;;;;;;;;;;10.20;85.80;;;;;;5048394;28;19913;-83
2021/12/29 13:56:55;;;;;;;;;;;10.10;86.40;;;;;;5032270;28;19913;-82
2021/12/29 13:59:21;;;;;;;;;;;10.20;85.80;;;;;;5025353;28;20008;-83
2021/12/29 14:01:48;;;;;;;;;;;10.20;85.70;;;;;;5028982;28;19932;-83
2021/12/29 14:04:19;;;;;;;;;;;10.00;85.80;;;;;;5032633;28;19913;-83
2021/12/29 14:06:45;;;;;;;;;;;10.10;85.80;;;;;;5027003;28;19914;-84
2021/12/29 14:09:11;;;;;;;;;;;10.00;86.20;;;;;;5020892;28;19921;-83
2021/12/29 14:11:38;;;;;;;;;;;10.10;85.70;;;;;;5043936;28;19917;-84
2021/12/29 14:14:07;;;;;;;;;;;10.00;85.70;;;;;;5042920;28;19924;-83
2021/12/29 14:16:33;;;;;;;;;;;10.00;86.70;;;;;;5046111;28;19917;-83
2021/12/29 14:19:01;;;;;;;;;;;10.00;86.20;;;;;;5043557;28;19921;-83
2021/12/29 14:21:31;;;;;;;;;;;10.00;86.10;;;;;;5044230;28;20286;-82
2021/12/29 14:23:58;;;;;;;;;;;10.10;85.90;;;;;;5026584;28;20389;-82
2021/12/29 14:26:24;;;;;;;;;;;10.00;86.60;;;;;;5042633;28;19920;-83
2021/12/29 14:28:51;;;;;;;;;;;10.00;86.30;;;;;;5041842;28;19913;-83
2021/12/29 14:31:16;;;;;;;;;;;10.00;86.40;;;;;;5043280;28;19956;-81
2021/12/29 14:33:42;;;;;;;;;;;10.00;86.60;;;;;;5033316;28;20395;-83